Time;durP1;ratioP1;P1;durP2;ratioP2;P2;SDS_P1;SDS_P2;PMS_P1;PMS_P2;Temp;Humidity;BMP_temperature;BMP_pressure;BME280_temperature;BME280_humidity;BME280_pressure;Samples;Min_cycle;Max_cycle;Signal;HPM_P1;HPM_P2
2022/02/11 00:00:21;;;;;;;34.92;16.33;;;;;;;3.55;82.25;100044.66;5116280;28;20059;-72
2022/02/11 00:05:48;;;;;;;31.73;16.08;;;;;;;3.65;82.44;100045.81;5116346;28;20046;-73
2022/02/11 00:08:18;;;;;;;30.98;15.15;;;;;;;3.61;82.25;100049.94;5116021;28;20047;-73
2022/02/11 00:10:47;;;;;;;30.57;15.63;;;;;;;3.65;82.37;100036.59;5115747;28;20044;-72
2022/02/11 00:13:16;;;;;;;34.50;15.95;;;;;;;3.69;81.91;100045.13;5115902;28;20031;-72
2022/02/11 00:15:49;;;;;;;34.30;15.83;;;;;;;3.63;81.88;100038.22;5116489;28;20046;-72
2022/02/11 00:18:18;;;;;;;33.83;16.17;;;;;;;3.65;82.68;100031.56;5115840;28;20048;-73
2022/02/11 00:20:50;;;;;;;36.17;16.60;;;;;;;3.69;82.24;100023.28;5116125;28;20046;-72
2022/02/11 00:23:21;;;;;;;34.83;16.25;;;;;;;3.62;82.14;100016.34;5115692;28;20086;-72
2022/02/11 00:25:52;;;;;;;30.35;16.35;;;;;;;3.60;82.62;100017.94;5115752;28;20044;-72
2022/02/11 00:31:31;;;;;;;28.95;16.13;;;;;;;3.76;82.95;100004.13;5114745;28;20443;-73
2022/02/11 00:34:01;;;;;;;32.20;15.70;;;;;;;3.79;82.56;100011.81;5114614;28;20126;-72
2022/02/11 00:36:35;;;;;;;27.92;15.98;;;;;;;3.74;82.20;100010.81;5115489;28;20079;-72
2022/02/11 00:39:20;;;;;;;31.85;16.27;;;;;;;3.74;82.37;99996.50;5116058;28;20468;-73
2022/02/11 00:53:25;;;;;;;33.72;15.55;;;;;;;3.89;82.49;99993.59;5115642;28;20048;-72
2022/02/11 01:03:52;;;;;;;34.63;16.73;;;;;;;3.88;82.77;99989.38;5115585;28;20098;-73
2022/02/11 01:06:22;;;;;;;29.95;15.82;;;;;;;3.93;82.74;99983.66;5114826;28;20054;-72
2022/02/11 01:08:53;;;;;;;23.83;12.63;;;;;;;3.91;82.31;99995.38;5114831;28;20051;-73
2022/02/11 01:11:27;;;;;;;30.73;15.00;;;;;;;3.92;82.30;99991.19;5114744;28;20511;-72
2022/02/11 01:13:56;;;;;;;27.77;14.40;;;;;;;3.94;82.53;99984.50;5114833;28;20051;-72
2022/02/11 01:16:32;;;;;;;32.87;16.00;;;;;;;3.91;82.18;99989.47;5114939;28;20054;-73
2022/02/11 01:19:10;;;;;;;32.20;15.93;;;;;;;3.91;82.15;99990.31;5114677;28;20367;-72
2022/02/11 01:21:47;;;;;;;30.65;14.77;;;;;;;3.91;82.86;99986.97;5114650;28;20048;-73
2022/02/11 01:24:32;;;;;;;35.65;17.15;;;;;;;3.94;82.30;99980.31;5114918;28;20143;-72
2022/02/11 01:27:18;;;;;;;37.58;16.65;;;;;;;3.97;82.37;99984.59;5114549;28;20078;-72
2022/02/11 01:30:15;;;;;;;31.05;15.90;;;;;;;3.98;82.19;99981.28;5113358;28;20047;-73
2022/02/11 01:33:00;;;;;;;30.30;15.93;;;;;;;3.96;82.18;99972.78;5115109;28;20110;-72
2022/02/11 01:35:42;;;;;;;28.75;15.23;;;;;;;3.96;82.25;99973.63;5113384;28;20092;-73
2022/02/11 01:38:22;;;;;;;35.20;16.70;;;;;;;3.97;81.48;99970.31;5114527;28;20051;-72
2022/02/11 01:44:05;;;;;;;23.30;12.30;;;;;;;4.00;81.41;99975.47;5096455;28;20074;-72
2022/02/11 01:47:04;;;;;;;32.28;15.82;;;;;;;3.92;81.51;99979.41;5114261;28;20075;-72
2022/02/11 01:49:58;;;;;;;30.67;16.58;;;;;;;3.81;81.65;99977.38;5114147;28;20517;-72
2022/02/11 01:52:43;;;;;;;34.03;17.65;;;;;;;3.80;81.76;99968.94;5114145;28;20078;-71
2022/02/11 01:55:27;;;;;;;31.38;16.52;;;;;;;3.87;82.31;99973.38;5114197;28;20043;-72
2022/02/11 02:00:59;;;;;;;33.67;16.98;;;;;;;3.83;81.65;99971.56;5114112;28;20066;-72
2022/02/11 02:15:04;;;;;;;;;;;;;;;3.74;82.53;99971.25;5114397;28;20051;-72
2022/02/11 02:23:05;;;;;;;32.15;15.23;;;;;;;3.54;83.00;99976.50;5113872;28;20036;-73
2022/02/11 02:25:42;;;;;;;28.42;14.48;;;;;;;3.53;82.99;99975.66;5114439;28;20431;-72
2022/02/11 02:39:22;;;;;;;31.52;15.57;;;;;;;3.74;83.22;99960.34;5113991;28;20069;-72
2022/02/11 02:58:12;;;;;;;27.95;14.32;;;;;;;3.82;83.51;99949.66;5117800;28;20083;-73
2022/02/11 03:49:19;;;;;;;28.05;15.52;;;;;;;3.62;82.81;99945.69;5131797;28;20431;-72
2022/02/11 03:57:35;;;;;;;30.85;15.75;;;;;;;3.60;82.79;99947.28;5131830;27;20057;-72
2022/02/11 04:56:04;;;;;;;27.05;13.50;;;;;;;3.78;83.03;99957.94;5117138;27;20553;-72
2022/02/11 05:01:13;;;;;;;26.45;13.60;;;;;;;3.79;83.20;99954.59;5117104;28;20116;-72
2022/02/11 05:03:42;;;;;;;24.65;12.90;;;;;;;3.77;82.55;99950.31;5116575;28;20054;-72
2022/02/11 05:06:12;;;;;;;27.30;13.50;;;;;;;3.70;82.50;99948.41;5116941;28;20045;-72
2022/02/11 05:08:41;;;;;;;27.33;13.90;;;;;;;3.64;82.32;99944.06;5116898;28;20036;-72
2022/02/11 05:11:10;;;;;;;23.38;11.43;;;;;;;3.54;82.64;99937.00;5116753;28;20531;-72
2022/02/11 05:13:41;;;;;;;24.25;12.98;;;;;;;3.40;82.13;99933.19;5116404;28;20044;-72
2022/02/11 05:16:09;;;;;;;28.05;12.98;;;;;;;3.25;82.56;99937.75;5116812;28;20411;-72
2022/02/11 05:18:38;;;;;;;24.33;13.37;;;;;;;3.11;82.83;99938.97;5116340;28;20044;-72
2022/02/11 05:21:07;;;;;;;19.80;10.27;;;;;;;2.88;82.74;99945.75;5116708;28;20032;-72
2022/02/11 05:23:36;;;;;;;29.95;14.00;;;;;;;2.86;81.93;99946.50;5116749;28;20046;-72
2022/02/11 05:26:05;;;;;;;26.30;13.70;;;;;;;2.92;82.31;99941.69;5116547;28;20565;-72
2022/02/11 05:28:34;;;;;;;26.20;13.13;;;;;;;2.89;82.82;99951.66;5116170;28;20284;-72
2022/02/11 05:31:05;;;;;;;28.40;15.02;;;;;;;2.82;83.31;99950.59;5116127;28;20043;-72
2022/02/11 05:33:34;;;;;;;31.83;16.05;;;;;;;2.87;82.58;99948.22;5116476;28;20047;-72
2022/02/11 05:36:03;;;;;;;28.65;15.02;;;;;;;2.79;82.51;99952.13;5116021;28;20047;-72
2022/02/11 05:38:32;;;;;;;30.98;14.90;;;;;;;2.65;82.54;99950.00;5115908;28;20154;-72
2022/02/11 05:41:01;;;;;;;29.88;16.05;;;;;;;2.65;83.11;99942.47;5115968;28;20076;-72
2022/02/11 05:43:30;;;;;;;31.52;15.43;;;;;;;2.65;83.66;99944.97;5116208;28;20032;-72
2022/02/11 05:45:59;;;;;;;25.60;11.93;;;;;;;2.60;82.99;99933.88;5115814;28;20044;-72
2022/02/11 05:48:29;;;;;;;27.07;12.27;;;;;;;2.73;83.50;99948.59;5116184;28;20071;-72
2022/02/11 05:50:58;;;;;;;34.80;18.65;;;;;;;2.78;84.01;99938.72;5115829;28;20044;-72
2022/02/11 05:53:27;;;;;;;32.00;18.27;;;;;;;2.82;83.96;99929.56;5116025;28;20036;-72
2022/02/11 05:55:56;;;;;;;38.70;17.52;;;;;;;2.95;83.79;99931.72;5080691;28;20052;-72
2022/02/11 05:58:25;;;;;;;30.65;16.30;;;;;;;2.96;83.11;99929.22;5115516;28;20089;-72
2022/02/11 06:00:54;;;;;;;33.60;17.60;;;;;;;3.03;83.33;99922.72;5114490;28;20047;-72
2022/02/11 06:03:23;;;;;;;36.63;18.70;;;;;;;3.15;84.21;99928.16;5115576;28;20036;-72
2022/02/11 06:05:53;;;;;;;31.07;15.53;;;;;;;3.09;83.76;99922.94;5115409;28;20055;-72
2022/02/11 06:08:23;;;;;;;30.83;16.52;;;;;;;2.91;83.52;99910.56;5115375;28;20493;-72
2022/02/11 06:10:52;;;;;;;35.05;16.25;;;;;;;2.78;83.98;99902.56;5115304;28;20050;-72
2022/02/11 06:13:23;;;;;;;27.92;15.02;;;;;;;2.76;83.88;99916.78;5115368;28;20051;-72
2022/02/11 06:15:52;;;;;;;28.33;15.45;;;;;;;2.81;83.79;99917.78;5115351;28;20048;-72
2022/02/11 06:18:23;;;;;;;29.98;15.52;;;;;;;2.91;83.65;99929.88;5115611;27;20093;-72
2022/02/11 06:20:54;;;;;;;33.72;16.45;;;;;;;2.92;84.39;99936.63;5114019;28;20047;-72
2022/02/11 06:23:23;;;;;;;38.10;17.38;;;;;;;3.00;83.91;99940.28;5115353;28;20504;-72
2022/02/11 06:25:52;;;;;;;33.67;17.70;;;;;;;3.06;84.40;99935.44;5115038;28;20050;-72
2022/02/11 06:28:21;;;;;;;35.67;17.27;;;;;;;3.05;83.80;99933.69;5114919;28;20088;-72
2022/02/11 06:30:49;;;;;;;33.27;19.53;;;;;;;3.09;84.52;99920.41;5114938;28;20050;-72
2022/02/11 06:33:19;;;;;;;35.78;17.52;;;;;;;3.09;83.96;99925.47;5114929;28;20085;-72
2022/02/11 06:35:48;;;;;;;;;;;;;;;3.10;84.41;99928.00;5116106;28;20108;-72
2022/02/11 06:38:18;;;;;;;30.65;15.85;;;;;;;3.15;84.63;99935.72;5114499;28;19966;-72
2022/02/11 06:40:56;;;;;;;32.58;17.35;;;;;;;3.19;84.53;99935.03;5114792;28;20052;-72
2022/02/11 06:43:25;;;;;;;30.73;16.88;;;;;;;3.29;84.16;99930.31;5114688;28;20051;-72
2022/02/11 06:45:54;;;;;;;28.53;13.43;;;;;;;3.32;84.76;99932.09;5114698;28;20043;-72
2022/02/11 06:48:23;;;;;;;35.30;17.40;;;;;;;3.36;84.78;99941.44;5114899;28;20039;-72
2022/02/11 06:50:53;;;;;;;31.55;17.83;;;;;;;3.43;84.89;99933.31;5114558;28;20043;-72
2022/02/11 06:53:23;;;;;;;34.03;17.33;;;;;;;3.50;84.77;99942.78;5114530;28;20043;-72
2022/02/11 06:55:53;;;;;;;35.97;17.70;;;;;;;3.59;84.63;99940.53;5114493;28;20043;-72
2022/02/11 06:58:22;;;;;;;45.75;22.33;;;;;;;3.69;84.74;99946.72;5114440;28;20043;-72
2022/02/11 07:00:52;;;;;;;39.45;20.88;;;;;;;3.73;84.79;99949.38;5114684;28;20039;-72
2022/02/11 07:03:21;;;;;;;39.08;20.15;;;;;;;3.82;84.86;99949.66;5114403;28;20092;-72
2022/02/11 07:05:58;;;;;;;36.95;19.05;;;;;;;3.89;84.20;99951.53;5114553;28;20047;-72
2022/02/11 07:08:28;;;;;;;33.95;18.58;;;;;;;3.89;84.78;99956.59;5114363;28;20050;-72
2022/02/11 07:10:58;;;;;;;33.22;17.88;;;;;;;3.90;84.31;99953.28;5114605;28;20040;-72
2022/02/11 07:13:27;;;;;;;36.60;18.95;;;;;;;3.97;84.60;99944.19;5114227;28;20044;-72
2022/02/11 07:15:56;;;;;;;31.88;18.17;;;;;;;4.02;84.32;99938.47;5114189;28;20035;-72
2022/02/11 07:18:25;;;;;;;35.13;17.98;;;;;;;4.10;84.29;99941.25;5114384;28;20074;-72
2022/02/11 07:20:55;;;;;;;35.00;18.65;;;;;;;4.18;83.87;99946.47;5114445;28;20055;-72
2022/02/11 07:23:24;;;;;;;35.67;18.67;;;;;;;4.23;84.41;99944.94;5114423;28;20405;-72
2022/02/11 07:25:54;;;;;;;35.80;17.83;;;;;;;4.28;84.54;99940.88;5114084;28;20036;-72
2022/02/11 07:28:24;;;;;;;30.80;16.23;;;;;;;4.40;83.68;99941.22;5114380;28;20092;-72
2022/02/11 07:30:53;;;;;;;29.27;15.70;;;;;;;4.48;84.03;99950.75;5113928;28;20044;-72
2022/02/11 07:33:22;;;;;;;27.98;14.73;;;;;;;4.54;83.60;99950.03;5114100;28;20038;-72
2022/02/11 07:35:51;;;;;;;28.10;13.70;;;;;;;4.63;83.69;99950.31;5113989;28;20047;-72
2022/02/11 07:38:23;;;;;;;27.67;12.90;;;;;;;4.67;83.56;99947.03;5113629;28;20295;-72
2022/02/11 07:40:52;;;;;;;23.20;13.23;;;;;;;4.71;83.48;99943.78;5113987;28;20291;-72
2022/02/11 07:43:24;;;;;;;26.42;12.82;;;;;;;4.80;83.08;99945.72;5113832;28;20036;-72
2022/02/11 07:46:12;;;;;;;24.58;14.02;;;;;;;4.83;83.38;99949.16;5114228;28;20071;-72
2022/02/11 07:48:41;;;;;;;25.90;14.18;;;;;;;4.81;83.56;99953.31;5113709;28;20055;-72
2022/02/11 07:51:10;;;;;;;27.63;13.77;;;;;;;4.88;83.49;99950.13;5113861;28;20520;-72
2022/02/11 07:53:45;;;;;;;28.52;14.55;;;;;;;4.96;83.29;99951.19;5110923;28;20039;-72
2022/02/11 07:56:14;;;;;;;29.05;14.35;;;;;;;5.16;83.10;99960.13;5095361;28;20050;-72
2022/02/11 07:58:45;;;;;;;26.27;14.63;;;;;;;5.19;82.76;99975.41;5097890;28;20389;-72
2022/02/11 08:01:16;;;;;;;28.25;12.93;;;;;;;5.28;82.95;99970.56;5093339;28;20052;-72
2022/02/11 08:03:45;;;;;;;28.35;13.98;;;;;;;5.33;83.14;99974.06;5093279;28;20044;-72
2022/02/11 08:06:14;;;;;;;20.77;10.97;;;;;;;5.33;82.86;99963.94;5101692;28;20040;-72
2022/02/11 08:08:43;;;;;;;23.15;12.93;;;;;;;5.40;82.55;99970.88;5106847;28;20044;-72
2022/02/11 08:11:12;;;;;;;25.35;14.13;;;;;;;5.45;82.44;99973.50;5112424;28;20036;-72
2022/02/11 08:13:41;;;;;;;25.92;14.07;;;;;;;5.31;82.11;99983.31;5113612;28;20046;-72
2022/02/11 08:16:12;;;;;;;24.67;14.25;;;;;;;5.35;82.02;99977.47;5113485;28;20112;-72
2022/02/11 08:18:42;;;;;;;28.42;14.35;;;;;;;5.46;81.90;99987.03;5113464;28;20051;-72
2022/02/11 08:21:16;;;;;;;29.58;15.82;;;;;;;5.47;81.52;99988.75;5113329;28;20485;-72
2022/02/11 08:23:45;;;;;;;33.20;14.88;;;;;;;5.51;81.20;99988.00;5114617;28;20035;-72
2022/02/11 08:26:15;;;;;;;29.33;15.57;;;;;;;5.50;81.72;99997.25;5117655;27;20093;-72
2022/02/11 08:28:44;;;;;;;30.25;15.95;;;;;;;5.60;80.93;100003.41;5117392;28;20050;-72
2022/02/11 08:31:14;;;;;;;27.33;15.60;;;;;;;5.68;81.07;99997.72;5117815;28;20475;-72
2022/02/11 08:33:46;;;;;;;28.50;16.33;;;;;;;5.77;80.71;100008.06;5117316;28;20082;-72
2022/02/11 08:36:15;;;;;;;30.27;16.60;;;;;;;5.84;80.71;100009.94;5117477;28;20049;-72
2022/02/11 08:38:44;;;;;;;30.27;16.30;;;;;;;5.80;80.37;100012.34;5117016;28;20122;-72
2022/02/11 08:41:13;;;;;;;28.80;15.10;;;;;;;5.61;80.17;99995.00;5117123;28;20047;-72
2022/02/11 08:43:42;;;;;;;35.33;16.17;;;;;;;5.76;80.48;100025.75;5116993;28;20038;-72
2022/02/11 08:46:11;;;;;;;30.83;15.52;;;;;;;5.76;80.19;100030.81;5109210;28;20047;-72
2022/02/11 08:48:41;;;;;;;20.15;10.55;;;;;;;5.76;79.87;100030.81;5117038;28;20047;-72
2022/02/11 08:51:10;;;;;;;31.60;15.00;;;;;;;5.74;80.46;100032.44;5117253;28;20519;-72
2022/02/11 08:53:39;;;;;;;27.85;14.30;;;;;;;5.76;80.41;100035.88;5117103;28;20063;-72
2022/02/11 08:56:09;;;;;;;22.90;13.50;;;;;;;5.79;80.36;100041.00;5116312;28;20126;-74
2022/02/11 08:58:38;;;;;;;;;;;;;;;5.80;80.81;100048.66;5113036;28;20496;-73
2022/02/11 09:01:10;;;;;;;25.67;12.55;;;;;;;5.77;80.68;100048.56;5112020;28;19920;-72
2022/02/11 09:03:40;;;;;;;25.55;13.40;;;;;;;5.80;80.99;100052.84;5116660;28;20056;-72
2022/02/11 09:06:10;;;;;;;;;;;;;;;5.77;80.99;100057.84;5117134;28;20047;-72
2022/02/11 09:08:40;;;;;;;23.30;13.43;;;;;;;5.79;81.49;100061.25;5116643;28;19977;-72
2022/02/11 09:11:12;;;;;;;23.92;12.75;;;;;;;5.86;81.16;100060.63;5116228;28;20067;-74
2022/02/11 09:13:41;;;;;;;25.40;13.52;;;;;;;5.92;81.83;100065.84;5114622;28;20527;-72
2022/02/11 09:16:10;;;;;;;26.37;12.63;;;;;;;5.98;81.75;100058.38;5097922;28;20046;-72
2022/02/11 09:18:39;;;;;;;23.30;12.23;;;;;;;6.05;82.12;100062.75;5098089;28;20097;-72
2022/02/11 09:21:08;;;;;;;;;;;;;;;6.09;82.02;100062.88;5116480;28;20044;-72
2022/02/11 09:23:38;;;;;;;25.40;11.30;;;;;;;6.11;81.89;100060.38;5116068;28;19955;-72
2022/02/11 09:26:08;;;;;;;22.67;12.57;;;;;;;6.15;82.36;100066.38;5116432;28;20046;-72
2022/02/11 09:28:37;;;;;;;18.83;9.77;;;;;;;6.16;82.23;100063.88;5115670;28;20374;-72
2022/02/11 09:31:08;;;;;;;22.67;13.15;;;;;;;6.12;82.60;100057.00;5116446;28;20564;-72
2022/02/11 09:33:37;;;;;;;23.17;11.57;;;;;;;6.10;82.37;100063.72;5116105;28;20050;-72
2022/02/11 09:36:08;;;;;;;19.65;11.60;;;;;;;6.06;82.54;100064.50;5116180;27;20043;-72
2022/02/11 09:38:39;;;;;;;22.45;13.05;;;;;;;6.05;82.63;100065.28;5115936;28;20054;-72
2022/02/11 09:41:10;;;;;;;23.80;12.65;;;;;;;5.99;82.27;100076.16;5115907;28;20043;-72
2022/02/11 09:43:39;;;;;;;26.38;13.70;;;;;;;5.94;82.83;100081.94;5116003;28;20050;-72
2022/02/11 09:46:18;;;;;;;24.63;12.90;;;;;;;6.03;82.82;100072.88;5116379;28;20358;-72
2022/02/11 09:48:46;;;;;;;22.73;13.63;;;;;;;6.10;82.95;100094.13;5115981;28;20054;-72
2022/02/11 09:51:14;;;;;;;21.88;12.38;;;;;;;6.12;83.21;100081.53;5115668;28;20089;-72
2022/02/11 09:53:44;;;;;;;25.30;14.65;;;;;;;6.09;82.83;100087.38;5115720;28;20042;-72
2022/02/11 09:56:13;;;;;;;21.55;12.20;;;;;;;6.11;83.10;100083.19;5116083;28;20105;-72
2022/02/11 09:59:05;;;;;;;21.58;11.98;;;;;;;6.17;82.76;100078.25;5115933;28;20071;-72
2022/02/11 10:01:44;;;;;;;22.73;12.18;;;;;;;6.23;82.55;100080.06;5115545;28;20036;-72
2022/02/11 10:04:17;;;;;;;20.20;11.27;;;;;;;6.22;82.82;100079.22;5115502;28;20055;-72
2022/02/11 10:06:51;;;;;;;19.92;10.65;;;;;;;6.26;82.93;100081.03;5115523;28;20039;-72
2022/02/11 10:09:23;;;;;;;17.92;10.10;;;;;;;6.32;82.80;100086.22;5115770;28;20118;-72
2022/02/11 10:11:54;;;;;;;18.70;9.50;;;;;;;6.42;82.48;100078.00;5115385;28;20051;-72
2022/02/11 10:14:26;;;;;;;19.75;11.43;;;;;;;6.51;82.20;100078.19;5115204;28;20485;-72
2022/02/11 10:16:58;;;;;;;16.45;10.07;;;;;;;6.55;82.90;100084.19;5115234;28;20039;-72
2022/02/11 10:19:38;;;;;;;17.08;9.23;;;;;;;6.61;82.64;100075.03;5115378;28;20042;-72
2022/02/11 10:22:19;;;;;;;23.25;12.10;;;;;;;6.68;82.53;100071.81;5115466;28;20513;-72
2022/02/11 10:24:54;;;;;;;14.93;8.48;;;;;;;6.73;82.34;100080.38;5115026;28;20036;-72
2022/02/11 10:27:26;;;;;;;15.35;9.15;;;;;;;6.79;82.20;100076.25;5113880;28;20052;-72
2022/02/11 10:29:57;;;;;;;14.40;8.38;;;;;;;6.80;81.78;100080.47;5114964;28;20040;-73
2022/02/11 10:32:38;;;;;;;16.23;9.00;;;;;;;6.69;81.88;100053.19;5114443;28;20043;-73
2022/02/11 10:35:11;;;;;;;14.23;7.68;;;;;;;6.83;82.16;100062.78;5114802;28;20501;-72
2022/02/11 10:38:11;;;;;;;15.23;8.18;;;;;;;6.87;82.32;100062.88;5114439;28;20119;-73
2022/02/11 10:40:45;;;;;;;14.32;7.97;;;;;;;6.97;82.36;100076.59;5114654;28;20047;-73
2022/02/11 10:43:20;;;;;;;14.70;8.13;;;;;;;6.94;81.86;100061.31;5114771;28;20063;-73
2022/02/11 10:45:51;;;;;;;14.43;7.75;;;;;;;6.94;81.92;100058.78;5107597;28;20127;-72
2022/02/11 10:48:23;;;;;;;11.77;7.40;;;;;;;6.93;81.15;100052.00;5100952;28;20097;-73
2022/02/11 10:50:56;;;;;;;12.23;6.85;;;;;;;6.94;80.90;100058.78;5096964;28;20097;-73
2022/02/11 10:53:28;;;;;;;16.40;8.05;;;;;;;6.92;81.00;100050.28;5103159;28;20054;-72
2022/02/11 10:56:00;;;;;;;13.55;7.70;;;;;;;6.94;81.33;100048.63;5099162;28;20040;-75
2022/02/11 10:58:32;;;;;;;12.15;6.90;;;;;;;6.91;82.03;100048.59;5111528;28;20489;-72
2022/02/11 11:01:05;;;;;;;12.77;7.22;;;;;;;6.89;81.98;100050.22;5099483;28;20047;-72
2022/02/11 11:03:35;;;;;;;13.98;7.95;;;;;;;6.92;81.76;100055.34;5097302;28;20054;-73
2022/02/11 11:06:08;;;;;;;13.57;7.95;;;;;;;6.89;81.48;100060.38;5112494;28;20051;-73
2022/02/11 11:08:38;;;;;;;14.15;7.55;;;;;;;6.86;81.05;100055.25;5094357;28;20127;-72
2022/02/11 11:11:11;;;;;;;14.35;7.57;;;;;;;6.79;81.68;100059.31;5094378;28;20044;-72
2022/02/11 11:13:42;;;;;;;14.00;7.18;;;;;;;6.77;82.22;100060.97;5094069;28;20035;-72
2022/02/11 11:16:21;;;;;;;15.02;7.97;;;;;;;6.80;82.16;100065.25;5093837;28;20052;-72
2022/02/11 11:18:51;;;;;;;17.98;8.50;;;;;;;6.81;82.88;100056.84;5093804;28;20050;-72
2022/02/11 11:21:20;;;;;;;;;;;;;;;6.84;82.39;100051.84;5096094;28;20044;-72
2022/02/11 11:24:00;;;;;;;12.00;6.70;;;;;;;6.84;83.08;100051.84;5101404;28;20006;-72
2022/02/11 11:26:37;;;;;;;;;;;;;;;6.87;83.77;100056.94;5103378;28;20090;-72
2022/02/11 11:29:15;;;;;;;15.48;5.53;;;;;;;6.88;82.96;100053.59;5102341;28;19927;-72
2022/02/11 11:31:56;;;;;;;11.07;5.30;;;;;;;6.92;83.62;100035.06;5100697;28;20048;-72
2022/02/11 11:34:30;;;;;;;10.75;5.13;;;;;;;6.93;83.63;100036.78;5093632;28;20044;-72
2022/02/11 11:37:05;;;;;;;8.25;5.03;;;;;;;6.99;84.27;100047.03;5093490;28;20473;-76
2022/02/11 11:39:46;;;;;;;9.57;4.95;;;;;;;7.02;84.23;100042.03;5093575;28;20055;-72
2022/02/11 11:42:17;;;;;;;11.57;5.13;;;;;;;7.04;84.66;100043.78;5093413;28;20043;-72
2022/02/11 11:44:52;;;;;;;13.27;6.00;;;;;;;7.01;84.36;100050.47;5093797;28;20471;-72
2022/02/11 11:47:30;;;;;;;15.45;6.03;;;;;;;6.97;84.85;100043.63;5095835;28;20120;-72
2022/02/11 11:50:00;;;;;;;12.00;4.77;;;;;;;7.01;85.63;100050.47;5102093;28;20090;-73
2022/02/11 11:52:42;;;;;;;10.13;5.40;;;;;;;7.04;85.22;100047.97;5103152;28;20042;-72
2022/02/11 11:55:38;;;;;;;12.60;6.20;;;;;;;7.07;85.75;100045.50;5103804;28;20039;-72
2022/02/11 11:58:09;;;;;;;10.25;5.20;;;;;;;7.10;85.74;100045.59;5103056;28;20485;-73
2022/02/11 12:00:41;;;;;;;12.45;5.65;;;;;;;7.15;85.75;100046.53;5105936;28;20043;-73
2022/02/11 12:03:11;;;;;;;13.15;6.43;;;;;;;7.15;85.94;100046.53;5106812;28;20036;-73
2022/02/11 12:05:53;;;;;;;9.57;5.60;;;;;;;7.18;85.81;100044.03;5100459;28;20546;-72
2022/02/11 12:08:28;;;;;;;12.55;5.45;;;;;;;7.21;85.84;100036.47;5097433;28;20135;-73
2022/02/11 12:11:01;;;;;;;13.07;6.05;;;;;;;7.25;86.71;100039.09;5097328;28;20044;-73
2022/02/11 12:13:32;;;;;;;11.77;5.75;;;;;;;7.31;86.16;100036.69;5097294;28;20470;-73
2022/02/11 12:16:03;;;;;;;10.35;5.75;;;;;;;7.38;86.50;100042.72;5097170;28;20048;-73
2022/02/11 12:18:32;;;;;;;10.93;6.38;;;;;;;7.41;86.56;100042.78;5097822;28;20527;-72
2022/02/11 12:21:00;;;;;;;11.15;5.53;;;;;;;7.45;87.07;100042.00;5097019;28;20123;-72
2022/02/11 12:28:55;;;;;;;9.88;5.55;;;;;;;7.59;86.55;100037.13;5106346;28;20059;-72
2022/02/11 12:31:24;;;;;;;10.35;5.15;;;;;;;7.61;86.95;100036.34;5106822;28;20040;-73
2022/02/11 12:34:10;;;;;;;10.23;5.57;;;;;;;7.59;86.53;100032.91;5105411;28;20044;-73
2022/02/11 12:36:45;;;;;;;13.85;5.38;;;;;;;7.53;87.33;100031.97;5105646;28;20044;-74
2022/02/11 12:39:18;;;;;;;9.27;5.45;;;;;;;7.52;86.56;100038.72;5105494;28;20497;-72
2022/02/11 12:41:50;;;;;;;9.55;5.50;;;;;;;7.52;86.58;100031.09;5105914;28;20054;-73
2022/02/11 12:44:28;;;;;;;12.75;6.00;;;;;;;7.53;86.50;100042.13;5105599;28;20040;-73
2022/02/11 12:47:01;;;;;;;12.43;5.65;;;;;;;7.58;86.87;100035.44;5106554;28;20489;-73
2022/02/11 12:49:33;;;;;;;9.27;5.35;;;;;;;7.61;86.64;100045.63;5103752;28;20126;-73
2022/02/11 12:52:03;;;;;;;10.55;5.53;;;;;;;7.66;86.97;100044.03;5105739;28;20036;-73
2022/02/11 12:54:31;;;;;;;9.20;4.00;;;;;;;7.72;86.52;100044.13;5105808;28;20122;-73
2022/02/11 12:57:03;;;;;;;10.45;5.25;;;;;;;7.75;86.38;100045.03;5106623;28;20497;-72
2022/02/11 12:59:49;;;;;;;11.45;5.57;;;;;;;7.75;86.86;100050.13;5105735;28;20123;-72
2022/02/11 13:02:26;;;;;;;8.70;4.72;;;;;;;7.78;86.75;100045.09;5106590;28;20094;-73
2022/02/11 13:05:07;;;;;;;8.73;4.35;;;;;;;7.83;86.68;100048.56;5105651;28;20048;-73
2022/02/11 13:07:37;;;;;;;8.20;4.47;;;;;;;7.81;87.24;100054.44;5105870;28;20051;-73
2022/02/11 13:10:08;;;;;;;8.10;5.00;;;;;;;7.75;86.04;100057.72;5104120;28;20036;-73
2022/02/11 13:12:42;;;;;;;7.57;3.85;;;;;;;7.74;86.49;100063.66;5105991;28;20048;-73
2022/02/11 13:15:15;;;;;;;8.27;4.38;;;;;;;7.69;86.24;100059.31;5105316;28;20039;-73
2022/02/11 13:17:46;;;;;;;7.95;4.60;;;;;;;7.71;86.61;100050.03;5104530;28;20832;-73
2022/02/11 13:20:19;;;;;;;8.82;4.57;;;;;;;7.68;86.75;100050.84;5104424;28;20044;-72
2022/02/11 13:22:51;;;;;;;9.73;4.57;;;;;;;7.78;87.31;100060.34;5104437;28;20044;-73
2022/02/11 13:25:21;;;;;;;9.77;4.38;;;;;;;7.82;86.63;100062.09;5103581;28;20137;-73
2022/02/11 13:27:51;;;;;;;9.40;3.97;;;;;;;7.89;86.44;100068.97;5100381;28;20054;-73
2022/02/11 13:30:30;;;;;;;8.82;4.65;;;;;;;7.96;86.92;100060.66;5115872;28;20392;-73
2022/02/11 13:33:00;;;;;;;8.07;4.32;;;;;;;8.00;85.52;100067.47;5116030;28;20062;-73
2022/02/11 13:35:41;;;;;;;7.78;4.90;;;;;;;8.01;86.04;100073.41;5108442;28;20054;-73
2022/02/11 13:38:11;;;;;;;8.95;5.32;;;;;;;8.07;85.16;100078.59;5115725;28;20047;-73
2022/02/11 13:40:40;;;;;;;10.30;4.90;;;;;;;8.03;85.64;100082.78;5116845;28;20043;-73
2022/02/11 13:43:12;;;;;;;7.18;4.30;;;;;;;8.05;85.53;100081.13;5116124;28;20489;-72
2022/02/11 13:45:54;;;;;;;8.25;4.25;;;;;;;8.06;84.88;100087.06;5107520;28;20042;-73
2022/02/11 13:48:24;;;;;;;7.65;5.18;;;;;;;8.05;84.89;100091.28;5112229;28;20044;-73
2022/02/11 13:51:05;;;;;;;12.52;6.20;;;;;;;8.06;84.20;100098.06;5115815;28;20054;-73
2022/02/11 13:53:40;;;;;;;9.45;5.93;;;;;;;8.11;84.58;100100.66;5115753;28;20039;-72
2022/02/11 13:56:11;;;;;;;7.40;4.68;;;;;;;8.14;83.67;100110.91;5116308;28;20043;-73
2022/02/11 13:59:00;;;;;;;8.23;4.30;;;;;;;8.11;83.02;100096.44;5115577;28;20044;-73
2022/02/11 14:01:31;;;;;;;6.35;3.92;;;;;;;8.11;83.10;100090.50;5115637;28;20044;-73
2022/02/11 14:04:03;;;;;;;8.20;4.20;;;;;;;8.09;83.25;100108.28;5115511;28;20059;-73
2022/02/11 14:06:36;;;;;;;11.40;5.63;;;;;;;8.04;82.70;100109.03;5108288;28;20045;-73
2022/02/11 14:09:07;;;;;;;9.93;5.35;;;;;;;7.99;82.26;100108.97;5103894;28;20385;-72
2022/02/11 14:11:38;;;;;;;10.73;5.57;;;;;;;7.97;82.17;100114.84;5102665;28;20032;-73
2022/02/11 14:14:17;;;;;;;10.30;6.85;;;;;;;7.95;82.27;100116.50;5104597;28;20054;-73
2022/02/11 14:16:49;;;;;;;8.50;5.50;;;;;;;7.99;81.39;100121.66;5105423;28;20044;-72
2022/02/11 14:19:18;;;;;;;10.20;4.95;;;;;;;8.00;81.40;100128.47;5104192;28;20036;-73
2022/02/11 14:21:47;;;;;;;6.63;3.87;;;;;;;7.96;81.83;100124.19;5102843;28;20508;-72
2022/02/11 14:24:15;;;;;;;9.00;5.88;;;;;;;7.93;81.07;100135.97;5103503;28;20300;-72
2022/02/11 14:26:44;;;;;;;6.87;5.20;;;;;;;7.95;80.29;100135.16;5104117;28;20080;-72
2022/02/11 14:29:15;;;;;;;7.77;4.93;;;;;;;7.95;80.01;100135.16;5105676;28;20272;-72
2022/02/11 14:31:45;;;;;;;7.50;5.18;;;;;;;7.91;79.79;100132.53;5104811;28;20547;-73
2022/02/11 14:34:17;;;;;;;5.88;3.20;;;;;;;7.90;79.95;100141.84;5103238;28;20044;-73
2022/02/11 14:36:46;;;;;;;6.85;3.50;;;;;;;7.87;79.01;100144.34;5111416;28;20048;-72
2022/02/11 14:39:16;;;;;;;7.55;4.47;;;;;;;7.85;78.75;100153.63;5115012;28;20082;-72
2022/02/11 14:41:48;;;;;;;6.22;3.50;;;;;;;7.82;78.17;100151.00;5114769;28;20051;-72
2022/02/11 14:44:17;;;;;;;12.07;8.63;;;;;;;7.79;76.64;100153.53;5112624;28;20046;-72
2022/02/11 14:46:48;;;;;;;31.27;20.77;;;;;;;7.78;76.66;100169.59;5105163;28;20106;-73
2022/02/11 14:49:20;;;;;;;8.20;5.40;;;;;;;7.75;75.79;100179.69;5113911;28;20101;-72
2022/02/11 14:51:51;;;;;;;6.53;3.95;;;;;;;7.73;75.34;100176.25;5096047;28;20039;-73
2022/02/11 14:54:21;;;;;;;4.57;2.50;;;;;;;7.71;75.23;100185.53;5112635;27;20130;-73
2022/02/11 14:56:51;;;;;;;4.65;2.92;;;;;;;7.70;74.40;100186.34;5094251;28;20044;-73
2022/02/11 14:59:21;;;;;;;4.25;2.63;;;;;;;7.68;73.69;100190.56;5108500;28;20126;-73
2022/02/11 15:01:52;;;;;;;2.80;1.70;;;;;;;7.65;73.09;100195.59;5114697;28;20043;-72
2022/02/11 15:04:25;;;;;;;4.32;2.47;;;;;;;7.64;72.85;100206.59;5114629;28;20378;-72